Reese River Valley, Nevada Weather observations

Data are for 10 minute period ending at time listed.
 Day   Time   Solar   Ave.   Ave.  Ave.  Vector  Max.   Baro.   Total    
  of    of     Rad.   Air    Rel.  Wind   Wind   Wind  Press.  Precip.   
Year   Day            Temp.  Hum.  Speed  Dir.   Gust                    
2016   (PST)  Kw/m2    F      %     mph   deg.    mph    mb.     in.     
-------------------------------------------------------------------------
 146    1:30   0.00   33.5    91    3.5   178     5.3   813.4    0.00 
 146    1:40   0.00   32.7    91    3.6   187     4.7   813.5    0.00 
 146    1:50   0.00   32.2    92    2.8   167     4.5   813.5    0.00 
 146    2:00   0.00   31.5    92    4.0   163     5.4   813.6    0.00 
 146    2:10   0.00   31.2    93    4.1   168     5.0   813.6    0.00 
 146    2:20   0.00   31.4    94    4.0   199     5.6   813.6    0.00 
 146    2:30   100.00  99999.0   99999  99999.0   99999   99999.0   99999.0   99999.00 
 146    2:40   100.00  99999.0   99999  99999.0   99999   99999.0   99999.0   99999.00 
 146    2:50   100.00  99999.0   99999  99999.0   99999   99999.0   99999.0   99999.00 
 146    3:00   100.00  99999.0   99999  99999.0   99999   99999.0   99999.0   99999.00 
 146    3:10   100.00  99999.0   99999  99999.0   99999   99999.0   99999.0   99999.00 
 146    3:20   100.00  99999.0   99999  99999.0   99999   99999.0   99999.0   99999.00 
 146    3:30   0.00   30.5    94    4.0   210     5.6   813.7    0.00 
 146    3:40   0.00   30.2    94    3.9   194     4.9   813.7    0.00 
 146    3:50   0.00   30.0    94    4.1   199     5.2   813.8    0.00 
 146    4:00   0.00   29.8    95    4.0   211     4.8   813.9    0.00 
 146    4:10   0.00   29.9    95    4.5   207     5.8   814.0    0.00 
 146    4:20   0.00   29.6    95    4.9   172     6.8   814.0    0.00 
 146    4:30   0.00   29.7    95    5.0   177     6.6   814.0    0.00 
 146    4:40   0.01   29.6    95    3.9   194     4.7   814.1    0.00 
 146    4:50   0.02   29.5    95    4.4   207     5.5   814.0    0.00 
 146    5:00   0.02   30.2    96    5.1   213     7.2   814.0    0.00 
 146    5:10   0.04   30.6    96    4.5   210     5.6   814.1    0.00 
 146    5:20   0.11   32.0    96    3.9   222     5.1   814.2    0.00 
 146    5:30   0.14   34.0    95    4.5   222     6.2   814.2    0.00 
 146    5:40   0.17   35.8    92    5.4   231     7.3   814.3    0.00 
 146    5:50   0.20   37.4    89    5.5   226     7.2   814.3    0.00 
 146    6:00   0.23   39.0    86    5.8   225     8.2   814.3    0.00 
 146    6:10   0.29   41.0    83    6.0   235     8.9   814.3    0.00 
 146    6:20   0.36   43.4    80    5.4   226     8.6   814.3    0.00 
 146    6:30   0.34   45.0    76    5.8   230     8.8   814.2    0.00 
 146    6:40   0.38   45.9    73    5.4   230     8.0   814.2    0.00 
 146    6:50   0.42   47.1    72    5.0   236     8.1   814.2    0.00 
 146    7:00   0.46   47.9    70    5.5   250     8.3   814.2    0.00 
 146    7:10   0.50   48.4    68    5.1   256     7.3   814.3    0.00 
 146    7:20   0.48   48.9    65    3.5   265     6.8   814.3    0.00 
 146    7:30   0.65   50.1    61    1.2   282     3.2   814.3    0.00 
 146    7:40   0.66   51.7    58    2.4    25     5.3   814.4    0.00 
 146    7:50   0.39   50.8    59    2.4   356     5.1   814.6    0.00 
 146    8:00   0.46   50.4    61    4.0   350     7.0   814.7    0.00 
 146    8:10   0.45   50.6    62    4.5     7     8.0   814.7    0.00 
 146    8:20   0.45   50.7    63    4.1    26     7.2   814.7    0.00 
 146    8:30   0.48   50.9    63    5.1     5     8.3   814.8    0.00 
 146    8:40   0.57   51.1    62    4.9    16     7.4   814.7    0.00 
 146    8:50   0.55   51.5    62    6.6     1    11.2   814.7    0.00 
 146    9:00   0.57   51.9    62    4.3    14     9.0   814.7    0.00 
 146    9:10   0.36   51.7    62    5.0    12     9.7   814.7    0.00 
 146    9:20   0.72   52.2    58    4.1   352     9.2   814.7    0.00 
 146    9:30   0.23   51.7    60    5.3   349     9.9   814.7    0.00 
 146    9:40   0.29   51.2    61    5.0   320     9.6   814.7    0.00 
 146    9:50   0.31   51.8    58    3.6   330     6.1   814.6    0.00 
 146   10:00   0.31   52.1    57    4.2   338     8.7   814.6    0.00 
 146   10:10   0.31   52.1    58    4.8   341     8.7   814.6    0.00 
 146   10:20   0.35   52.4    58    5.6   327     8.4   814.6    0.00 
 146   10:30   0.29   51.6    63   10.3   316    16.2   814.6    0.00 
 146   10:40   0.40   50.3    68   10.6   320    15.1   814.6    0.00 
 146   10:50   1.04   51.0    70   10.0   314    14.0   814.4    0.00 
 146   11:00   0.99   52.0    68    8.7   308    12.3   814.3    0.00 
 146   11:10   1.19   53.5    65    8.6   312    11.5   814.3    0.00 
 146   11:20   1.03   54.4    56    8.4   300    11.9   814.3    0.00 
 146   11:30   1.40   55.0    59   15.1   285    22.9   814.3    0.00 
 146   11:40   1.26   54.0    60   15.9   281    21.9   814.3    0.00 
 146   11:50   1.28   54.4    60   16.0   278    24.3   814.3    0.00 
 146   12:00   1.28   54.7    59   16.5   275    25.6   814.3    0.00 
 146   12:10   1.30   54.2    58   16.1   272    25.8   814.4    0.00 
 146   12:20   0.99   53.7    58   14.8   273    21.4   814.5    0.00 
 146   12:30   0.98   53.5    56   13.6   276    24.5   814.6    0.00 
 146   12:40   0.92   54.5    54   10.3   276    18.4   814.7    0.00 
 146   12:50   0.70   54.1    54    8.9   278    14.8   814.7    0.00 
 146   13:00   0.78   54.6    53    7.2   269    13.2   814.7    0.00 
 146   13:10   0.76   55.3    50    8.3   329    15.9   814.7    0.00 
 146   13:20   0.74   54.1    53    8.9    17    12.8   814.7    0.00 
 146   13:30   0.74   53.8    53    8.9    22    14.5   814.8    0.00 
 146   13:40   0.74   53.6    54    7.9    31    13.2   814.8    0.00 
 146   13:50   0.71   53.7    56    7.8    54    12.5   814.7    0.00 
 146   14:00   0.71   54.0    54    5.9    69    11.0   814.5    0.00 
 146   14:10   0.79   55.2    50    5.6     8     9.3   814.3    0.00 
 146   14:20   0.87   55.8    47    5.1   343     8.9   814.2    0.00 
 146   14:30   0.85   56.7    43    4.2   316     7.1   814.1    0.00 
 146   14:40   0.79   57.7    41    2.9   316     6.8   814.0    0.00 
 146   14:50   0.83   57.5    41    4.7    59     8.7   814.0    0.00 
 146   15:00   0.82   57.7    39    4.7    17     8.8   814.1    0.00 
 146   15:10   0.74   58.0    42    6.2   357    15.6   814.1    0.00 
 146   15:20   0.28   54.7    50   15.9   344    30.0   814.6    0.00 
 146   15:30   0.20   49.4    65   19.0     0    28.9   815.0    0.00 
 146   15:40   0.14   48.6    68   14.8    14    24.8   815.2    0.00 
 146   15:50   0.13   48.1    70   13.8    19    19.3   815.1    0.00 
 146   16:00   0.19   47.8    73   13.3    16    18.1   815.0    0.00 
 146   16:10   0.25   47.1    78   13.8    30    21.6   815.0    0.01 
 146   16:20   0.26   46.8    81   14.2    26    21.5   815.0    0.00 
 146   16:30   0.22   46.8    80   13.6    18    18.6   815.0    0.00 
 146   16:40   0.19   46.6    79   13.3    28    20.1   815.1    0.00 
 146   16:50   0.17   46.7    76   11.5    32    17.6   815.1    0.00 
 146   17:00   0.15   46.9    73    9.2    20    13.7   815.1    0.00 
 146   17:10   0.14   47.0    71    9.2   356    13.7   815.0    0.00 
 146   17:20   0.12   46.8    73    8.2   329    12.0   815.1    0.00 
 146   17:30   0.10   46.6    73    3.9   325     9.4   815.2    0.00 
 146   17:40   0.08   46.8    75    1.6   109     3.4   815.1    0.00 
 146   17:50   0.14   47.2    73    2.4   139     4.6   814.9    0.00 
 146   18:00   0.24   48.6    70    3.0   150     5.6   814.9    0.00 
 146   18:10   0.21   50.1    67    3.1   210     5.5   814.9    0.00 
 146   18:20   0.13   50.6    65    2.0   192     4.0   815.0    0.00 
 146   18:30   0.06   49.4    67    2.4   190     3.7   815.0    0.00 
 146   18:40   0.07   48.4    69    1.9   226     3.1   815.0    0.00 
 146   18:50   0.02   45.7    75    3.4   258     5.0   815.0    0.00 
 146   19:00   0.01   43.3    81    3.3   266     4.7   815.0    0.00 
 146   19:10   0.01   42.6    83    3.4   261     4.2   814.9    0.00 
 146   19:20   0.00   42.4    85    1.9   232     4.0   814.9    0.00 
 146   19:30   0.00   43.2    86    1.4    99     2.3   815.1    0.00 
 146   19:40   0.00   43.5    84    2.9   113     4.4   815.2    0.00 
 146   19:50   0.00   43.2    85    3.5   129     5.5   815.2    0.00 
 146   20:00   0.00   43.1    85    3.5   151     4.5   815.3    0.00 
 146   20:10   0.00   42.8    85    2.9   162     4.2   815.3    0.00 
 146   20:20   0.00   42.8    86    1.9   178     2.6   815.4    0.00 
 146   20:30   0.00   42.9    86    3.0   169     3.8   815.3    0.00 
 146   20:40   0.00   41.8    86    3.8   223     4.6   815.5    0.00 
 146   20:50   0.00   40.3    86    3.3   226     3.8   815.6    0.00 
 146   21:00   0.00   39.9    87    4.1   207     4.6   815.6    0.00 
 146   21:10   0.00   39.8    88    4.2   177     5.0   815.6    0.00 
 146   21:20   0.00   40.2    89    3.7   153     4.8   815.7    0.00 
 146   21:30   0.00   41.1    88    4.4   148     6.3   815.7    0.00 
 146   21:40   0.00   41.4    86    3.2   166     4.3   815.6    0.00 
 146   21:50   0.00   40.4    87    2.9   186     3.9   815.6    0.00 
 146   22:00   0.00   39.8    89    3.3   191     4.2   815.6    0.00 
 146   22:10   0.00   39.8    89    3.5   242     5.0   815.6    0.00 
 146   22:20   0.00   40.1    88    3.9   218     5.4   815.6    0.00 
 146   22:30   0.00   40.3    88    3.2   210     4.2   815.5    0.00 
 146   22:40   0.00   40.3    89    4.0   206     4.5   815.5    0.00 
 146   22:50   0.00   40.6    90    3.5   202     4.5   815.5    0.00 
 146   23:00   0.00   40.9    90    2.5   188     3.6   815.6    0.00 
 146   23:10   0.00   41.1    89    3.9   198     5.4   815.6    0.00 
 146   23:20   0.00   41.7    89    4.4   197     6.3   815.5    0.00 
 146   23:30   0.00   42.4    88    4.5   190     5.9   815.5    0.00 
 146   23:40   0.00   42.6    87    4.7   193     6.4   815.5    0.00 
 146   23:50   0.00   42.9    86    3.6   188     5.0   815.6    0.00 
 147    0:00   0.00   43.1    86    2.4   193     4.2   815.5    0.00 
 147    0:10   0.00   43.0    86    0.9   216     2.0   815.5    0.00 
 147    0:20   0.00   42.8    86    1.5   284     2.3   815.4    0.00 
 147    0:30   0.00   42.5    87    1.5   299     2.9   815.4    0.00 
 147    0:40   0.00   41.7    87    2.0   232     4.3   815.2    0.00 
 147    0:50   0.00   40.0    88    3.8   249     4.9   815.2    0.00 
 147    1:00   0.00   38.9    90    2.9   236     3.4   815.2    0.00 
 147    1:10   0.00   39.4    91    3.6   230     4.5   815.2    0.00 
 147    1:20   0.00   39.8    91    3.7   216     4.5   815.1    0.00 

Return to Reese River Valley graphs page.


Western Regional Climate Center,wrcc@dri.edu